Time;durP1;ratioP1;P1;durP2;ratioP2;P2;SDS_P1;SDS_P2;PMS_P1;PMS_P2;Temp;Humidity;BMP_temperature;BMP_pressure;BME280_temperature;BME280_humidity;BME280_pressure;Samples;Min_cycle;Max_cycle;Signal;HPM_P1;HPM_P2
2024/01/28 00:00:34;;;;;;;3.15;2.78;;;;;;;0.18;100.00;100240.22;4176896;28;20208;-52
2024/01/28 00:02:36;;;;;;;10.47;3.17;;;;;;;0.12;100.00;100241.63;4176026;28;20224;-55
2024/01/28 00:04:38;;;;;;;5.25;3.10;;;;;;;0.05;100.00;100251.28;4169772;28;20201;-53
2024/01/28 00:06:39;;;;;;;4.13;3.85;;;;;;;0.06;100.00;100246.72;4191707;28;20230;-53
2024/01/28 00:08:41;;;;;;;3.43;3.13;;;;;;;0.22;100.00;100247.00;4176984;28;20735;-54
2024/01/28 00:10:43;;;;;;;4.50;4.10;;;;;;;-0.04;100.00;100238.63;4190650;28;20203;-52
2024/01/28 00:12:45;;;;;;;6.50;3.60;;;;;;;0.16;100.00;100240.34;4190204;28;20277;-51
2024/01/28 00:14:47;;;;;;;3.57;3.23;;;;;;;0.00;100.00;100231.16;4187196;28;20241;-51
2024/01/28 00:16:49;;;;;;;6.20;2.97;;;;;;;-0.03;100.00;100236.81;4191140;28;20203;-51
2024/01/28 00:18:57;;;;;;;4.07;3.77;;;;;;;0.00;100.00;100242.75;4172422;28;20208;-51
2024/01/28 00:21:00;;;;;;;7.00;3.80;;;;;;;0.04;100.00;100229.88;4168230;28;20204;-52
2024/01/28 00:23:02;;;;;;;3.63;2.77;;;;;;;0.13;100.00;100232.56;4173975;28;20733;-55
2024/01/28 00:25:07;;;;;;;2.57;2.13;;;;;;;0.13;100.00;100235.25;4172472;28;20216;-52
2024/01/28 00:27:10;;;;;;;7.93;3.13;;;;;;;-0.04;100.00;100230.56;4191008;28;20227;-55
2024/01/28 00:29:11;;;;;;;3.60;3.38;;;;;;;0.07;100.00;100233.13;4157656;28;20263;-53
2024/01/28 00:31:14;;;;;;;5.13;3.17;;;;;;;0.02;100.00;100224.63;4175576;28;20204;-54
2024/01/28 00:33:15;;;;;;;8.20;3.50;;;;;;;-0.04;100.00;100227.88;4185801;28;20270;-52
2024/01/28 00:35:17;;;;;;;1.87;1.77;;;;;;;-0.13;100.00;100226.06;4173824;28;20208;-53
2024/01/28 00:37:19;;;;;;;3.40;3.20;;;;;;;-0.04;100.00;100214.44;4189598;28;20210;-52
2024/01/28 00:39:21;;;;;;;2.93;2.63;;;;;;;0.01;100.00;100217.56;4173448;28;20208;-51
2024/01/28 00:41:28;;;;;;;3.30;3.00;;;;;;;0.01;100.00;100217.56;4174697;28;20246;-51
2024/01/28 00:43:30;;;;;;;5.40;2.93;;;;;;;-0.04;100.00;100222.50;4173191;28;20227;-54
2024/01/28 00:45:32;;;;;;;2.97;2.77;;;;;;;-0.16;100.00;100220.09;4171631;28;20216;-53
2024/01/28 00:47:34;;;;;;;2.67;2.55;;;;;;;-0.24;100.00;100224.47;4173058;28;20228;-52
2024/01/28 00:49:35;;;;;;;2.03;1.93;;;;;;;-0.08;100.00;100219.41;4175492;28;20219;-52
2024/01/28 00:51:38;;;;;;;20.30;2.63;;;;;;;-0.11;100.00;100223.22;4169807;28;20614;-53
2024/01/28 00:53:39;;;;;;;4.47;3.10;;;;;;;-0.18;100.00;100215.84;4174987;28;20232;-53
2024/01/28 00:55:41;;;;;;;2.90;2.67;;;;;;;-0.20;100.00;100209.78;4178402;28;20551;-53
2024/01/28 00:57:43;;;;;;;3.47;3.17;;;;;;;-0.18;100.00;100211.34;4173755;28;20236;-54
2024/01/28 00:59:45;;;;;;;3.43;3.20;;;;;;;-0.25;100.00;100203.97;4178241;28;20242;-53
2024/01/28 01:01:46;;;;;;;3.27;2.50;;;;;;;-0.33;100.00;100203.81;4172176;28;20214;-54
2024/01/28 01:03:48;;;;;;;3.47;3.27;;;;;;;-0.34;100.00;100199.44;4190553;28;20260;-52
2024/01/28 01:05:50;;;;;;;2.30;2.20;;;;;;;-0.35;100.00;100205.81;4177200;28;20238;-52
2024/01/28 01:07:52;;;;;;;3.23;3.00;;;;;;;-0.28;100.00;100201.56;4179237;28;20215;-53
2024/01/28 01:09:54;;;;;;;5.50;5.10;;;;;;;-0.34;100.00;100202.94;4172455;28;20216;-53
2024/01/28 01:11:56;;;;;;;3.60;3.47;;;;;;;-0.27;100.00;100205.94;4191055;28;20250;-51
2024/01/28 01:14:00;;;;;;;7.70;4.43;;;;;;;-0.50;100.00;100201.81;4196197;28;20866;-52
2024/01/28 01:16:02;;;;;;;6.53;4.33;;;;;;;-0.46;100.00;100208.59;4177296;28;20204;-52
2024/01/28 01:18:04;;;;;;;7.97;2.77;;;;;;;-0.45;100.00;100208.47;4179730;28;20204;-52
2024/01/28 01:20:07;;;;;;;2.60;2.50;;;;;;;-0.28;100.00;100197.00;4178396;28;20232;-51
2024/01/28 01:22:09;;;;;;;2.73;2.60;;;;;;;-0.35;100.00;100197.75;4177828;28;20235;-51
2024/01/28 01:24:11;;;;;;;4.57;4.27;;;;;;;-0.34;100.00;100199.44;4178099;28;20615;-54
2024/01/28 01:26:13;;;;;;;2.90;2.77;;;;;;;-0.36;100.00;100201.41;4194402;28;20211;-51
2024/01/28 01:28:15;;;;;;;3.23;3.03;;;;;;;-0.35;100.00;100193.19;4193858;28;20266;-52
2024/01/28 01:30:16;;;;;;;4.23;3.83;;;;;;;-0.46;100.00;100197.84;4179304;28;20248;-52
2024/01/28 01:32:18;;;;;;;3.17;2.97;;;;;;;-0.54;100.00;100193.16;4176637;28;20254;-51
2024/01/28 01:34:20;;;;;;;2.50;2.30;;;;;;;-0.56;100.00;100188.94;4176799;28;20215;-51
2024/01/28 01:36:22;;;;;;;3.10;2.80;;;;;;;-0.58;100.00;100181.00;4174766;28;20273;-53
2024/01/28 01:38:24;;;;;;;3.77;3.57;;;;;;;-0.56;100.00;100188.94;4192918;28;20210;-51
2024/01/28 01:40:26;;;;;;;2.37;2.20;;;;;;;-0.63;100.00;100185.09;4178754;28;20252;-51
2024/01/28 01:42:27;;;;;;;3.80;2.40;;;;;;;-0.53;100.00;100188.66;4162991;28;20220;-52
2024/01/28 01:44:29;;;;;;;4.00;3.00;;;;;;;-0.60;100.00;100187.50;4194719;28;20262;-52
2024/01/28 01:46:31;;;;;;;2.73;2.33;;;;;;;-0.59;100.00;100184.69;4177910;28;20318;-52
2024/01/28 01:48:33;;;;;;;4.17;3.47;;;;;;;-0.60;100.00;100182.13;4175948;28;20222;-52
2024/01/28 01:50:37;;;;;;;4.07;3.87;;;;;;;-0.65;100.00;100179.00;4178673;28;20821;-55
2024/01/28 01:52:41;;;;;;;2.47;2.27;;;;;;;-0.67;100.00;100175.63;4171493;28;20235;-52
2024/01/28 01:54:43;;;;;;;3.90;3.53;;;;;;;-0.65;100.00;100168.25;4178833;28;20658;-51
2024/01/28 01:56:45;;;;;;;2.90;2.73;;;;;;;-0.61;100.00;100169.69;4177094;28;20251;-53
2024/01/28 01:58:47;;;;;;;2.97;2.80;;;;;;;-0.66;100.00;100162.06;4171975;28;20209;-52
2024/01/28 02:00:49;;;;;;;3.80;3.53;;;;;;;-0.73;100.00;100165.41;4176919;28;20220;-52
2024/01/28 02:02:51;;;;;;;7.27;3.70;;;;;;;-0.72;100.00;100162.59;4167295;28;20236;-56
2024/01/28 02:04:53;;;;;;;3.13;2.87;;;;;;;-0.72;100.00;100161.75;4174547;28;20358;-52
2024/01/28 02:06:55;;;;;;;4.27;3.23;;;;;;;-0.66;100.00;100161.19;4192791;28;20231;-53
2024/01/28 02:08:57;;;;;;;3.73;3.53;;;;;;;-0.60;100.00;100153.41;4177946;28;20212;-54
2024/01/28 02:11:05;;;;;;;3.97;3.70;;;;;;;-0.58;100.00;100147.91;4178118;28;20586;-56
2024/01/28 02:13:07;;;;;;;2.60;2.50;;;;;;;-0.57;100.00;100149.59;4160081;28;20228;-52
2024/01/28 02:15:09;;;;;;;2.53;2.37;;;;;;;-0.64;100.00;100135.00;4174666;28;20223;-54
2024/01/28 02:17:11;;;;;;;6.20;3.43;;;;;;;-0.74;100.00;100136.84;4172418;28;20208;-53
2024/01/28 02:19:17;;;;;;;3.97;3.70;;;;;;;-0.80;100.00;100138.25;4173552;28;21433;-52
2024/01/28 02:21:19;;;;;;;5.13;3.17;;;;;;;-0.80;100.00;100143.59;4172509;28;20204;-53
2024/01/28 02:23:21;;;;;;;4.57;2.40;;;;;;;-0.87;100.00;100147.84;4157200;28;20278;-53
2024/01/28 02:25:24;;;;;;;5.30;2.80;;;;;;;-0.87;100.00;100144.31;4174742;28;20216;-56
2024/01/28 02:27:26;;;;;;;3.57;3.37;;;;;;;-0.83;100.00;100140.34;4174214;28;20728;-54
2024/01/28 02:29:28;;;;;;;2.23;2.13;;;;;;;-0.83;100.00;100151.97;4187867;28;20715;-54
2024/01/28 02:31:29;;;;;;;2.50;2.37;;;;;;;-0.89;100.00;100149.00;4174755;28;20223;-52
2024/01/28 02:33:31;;;;;;;3.30;3.10;;;;;;;-0.89;100.00;100149.81;4169466;28;20239;-53
2024/01/28 02:35:33;;;;;;;2.53;2.33;;;;;;;-0.89;100.00;100155.19;4158990;28;20219;-54
2024/01/28 02:37:35;;;;;;;4.47;4.17;;;;;;;-0.76;100.00;100157.63;4172719;28;20238;-52
2024/01/28 02:39:37;;;;;;;6.53;3.00;;;;;;;-0.82;100.00;100160.88;4191607;28;20207;-52
2024/01/28 02:41:40;;;;;;;2.97;2.77;;;;;;;-0.87;100.00;100150.53;4188620;28;20206;-53
2024/01/28 02:43:41;;;;;;;2.67;2.47;;;;;;;-0.85;100.00;100155.78;4175710;28;20235;-54
2024/01/28 02:45:43;;;;;;;2.13;1.93;;;;;;;-0.90;100.00;100152.63;4175705;28;20211;-52
2024/01/28 02:47:45;;;;;;;3.63;2.40;;;;;;;-0.93;100.00;100148.41;4187031;28;20280;-51
2024/01/28 02:49:47;;;;;;;2.77;2.67;;;;;;;-0.95;100.00;100149.53;4168215;28;20204;-52
2024/01/28 02:51:52;;;;;;;2.23;2.13;;;;;;;-0.85;100.00;100150.41;4174569;28;20213;-51
2024/01/28 02:53:53;;;;;;;2.70;2.10;;;;;;;-0.87;100.00;100149.69;4174719;28;20660;-53
2024/01/28 02:55:59;;;;;;;2.90;2.70;;;;;;;-0.93;100.00;100142.19;4151191;28;1147908;-52
2024/01/28 02:58:01;;;;;;;4.27;3.97;;;;;;;-0.83;100.00;100143.91;4175805;28;20201;-54
2024/01/28 03:00:04;;;;;;;4.37;4.03;;;;;;;-0.90;100.00;100148.13;4174065;28;20212;-53
2024/01/28 03:02:06;;;;;;;3.33;3.13;;;;;;;-0.98;100.00;100145.28;4177470;28;20207;-54
2024/01/28 03:04:07;;;;;;;11.70;3.00;;;;;;;-0.96;100.00;100142.44;4189744;28;20221;-52
2024/01/28 03:06:10;;;;;;;2.33;2.23;;;;;;;-0.97;100.00;100136.25;4171470;28;20208;-51
2024/01/28 03:08:12;;;;;;;2.30;2.10;;;;;;;-1.01;100.00;100139.34;4189746;28;20799;-54
2024/01/28 03:10:14;;;;;;;2.47;2.27;;;;;;;-0.97;100.00;100140.75;4191167;28;20215;-54
2024/01/28 03:12:16;;;;;;;2.13;2.03;;;;;;;-0.94;100.00;100140.50;4171752;28;20208;-53
2024/01/28 03:14:18;;;;;;;3.10;2.90;;;;;;;-0.98;100.00;100136.38;4175083;28;20285;-52
2024/01/28 03:16:20;;;;;;;3.33;3.13;;;;;;;-1.03;100.00;100130.56;4170044;28;20208;-52
2024/01/28 03:18:22;;;;;;;3.07;2.87;;;;;;;-1.03;100.00;100135.94;4169643;28;20658;-52
2024/01/28 03:20:25;;;;;;;1.70;1.60;;;;;;;-0.99;100.00;100132.00;4175736;28;20576;-51
2024/01/28 03:22:26;;;;;;;2.37;2.27;;;;;;;-0.97;100.00;100140.75;4170835;28;20223;-52
2024/01/28 03:24:29;;;;;;;1.63;1.57;;;;;;;-0.98;100.00;100139.06;4179644;28;20343;-52
2024/01/28 03:26:34;;;;;;;9.50;1.60;;;;;;;-1.01;100.00;100145.56;4188904;28;20665;-52
2024/01/28 03:28:36;;;;;;;2.40;2.30;;;;;;;-1.06;100.00;100146.97;4175957;28;20254;-52
2024/01/28 03:30:38;;;;;;;3.63;2.97;;;;;;;-1.05;100.00;100149.50;4176179;28;20236;-55
2024/01/28 03:32:39;;;;;;;2.03;1.93;;;;;;;-1.08;100.00;100135.50;4169297;28;20247;-55
2024/01/28 03:34:44;;;;;;;2.30;2.20;;;;;;;-1.03;100.00;100141.31;4157531;28;20270;-55
2024/01/28 03:36:46;;;;;;;5.17;2.40;;;;;;;-1.01;100.00;100133.97;4192589;28;20221;-55
2024/01/28 03:38:48;;;;;;;2.40;2.30;;;;;;;-1.00;100.00;100138.34;4174090;28;20387;-52
2024/01/28 03:40:52;;;;;;;2.37;2.17;;;;;;;-1.09;100.00;100141.88;4173881;28;20209;-51
2024/01/28 03:42:54;;;;;;;2.73;2.53;;;;;;;-1.16;100.00;100141.56;4173854;28;20851;-51
2024/01/28 03:44:56;;;;;;;2.93;2.63;;;;;;;-1.18;100.00;100148.03;4168813;28;20208;-53
2024/01/28 03:46:58;;;;;;;3.47;3.27;;;;;;;-1.17;100.00;100155.13;4190679;28;20290;-52
2024/01/28 03:49:00;;;;;;;4.17;2.90;;;;;;;-1.17;100.00;100152.44;4171339;28;20346;-52
2024/01/28 03:51:02;;;;;;;3.00;2.83;;;;;;;-1.22;100.00;100160.06;4188017;28;20207;-52
2024/01/28 03:53:04;;;;;;;2.63;2.53;;;;;;;-1.29;100.00;100156.22;4176205;28;20487;-51
2024/01/28 03:55:06;;;;;;;2.57;2.40;;;;;;;-1.25;100.00;100146.88;4175870;28;20212;-52
2024/01/28 03:57:08;;;;;;;1.87;1.50;;;;;;;-1.25;100.00;100152.25;4170339;28;20212;-54
2024/01/28 03:59:10;;;;;;;2.13;2.03;;;;;;;-1.13;100.00;100151.19;4170774;28;20204;-52
2024/01/28 04:01:12;;;;;;;2.83;2.13;;;;;;;-1.23;100.00;100151.16;4176285;28;20266;-52
2024/01/28 04:03:14;;;;;;;2.03;1.83;;;;;;;-1.24;100.00;100148.59;4174287;28;20228;-52
2024/01/28 04:05:16;;;;;;;3.00;2.70;;;;;;;-1.28;100.00;100141.81;4172011;28;20204;-55
2024/01/28 04:07:18;;;;;;;11.60;3.07;;;;;;;-1.31;100.00;100148.28;4173833;28;20250;-53
2024/01/28 04:09:19;;;;;;;1.93;1.80;;;;;;;-1.23;100.00;100151.16;4175770;28;20242;-54
2024/01/28 04:11:25;;;;;;;2.97;1.70;;;;;;;-1.27;100.00;100144.34;4175356;28;20208;-53
2024/01/28 04:13:27;;;;;;;6.97;3.57;;;;;;;-1.22;100.00;100138.59;4173341;28;20236;-51
2024/01/28 04:15:28;;;;;;;2.40;2.30;;;;;;;-1.30;100.00;100138.38;4174548;28;20250;-52
2024/01/28 04:17:30;;;;;;;2.00;1.90;;;;;;;-1.41;100.00;100135.81;4174315;28;20303;-52
2024/01/28 04:19:32;;;;;;;2.07;1.97;;;;;;;-1.42;100.00;100134.13;4158425;28;20212;-52
2024/01/28 04:21:34;;;;;;;2.23;2.07;;;;;;;-1.44;100.00;100123.53;4171646;28;20217;-56
2024/01/28 04:23:39;;;;;;;2.50;2.30;;;;;;;-1.34;100.00;100128.94;4173289;28;20228;-54
2024/01/28 04:25:40;;;;;;;4.53;3.17;;;;;;;-1.25;100.00;100128.09;4176043;28;20670;-52
2024/01/28 04:27:42;;;;;;;2.00;1.90;;;;;;;-1.30;100.00;100122.28;4178633;28;20227;-54
2024/01/28 04:29:44;;;;;;;18.40;2.40;;;;;;;-1.33;100.00;100125.25;4170097;28;20216;-54
2024/01/28 04:31:46;;;;;;;6.00;2.43;;;;;;;-1.19;100.00;100114.13;4174841;28;20211;-53
2024/01/28 04:33:47;;;;;;;2.70;2.47;;;;;;;-1.29;100.00;100114.09;4191697;28;20231;-51
2024/01/28 04:35:49;;;;;;;7.53;2.93;;;;;;;-1.32;100.00;100125.13;4175597;28;20212;-52
2024/01/28 04:37:52;;;;;;;1.87;1.77;;;;;;;-1.38;100.00;100116.75;4175523;28;20204;-54
2024/01/28 04:39:53;;;;;;;2.27;2.17;;;;;;;-1.37;100.00;100110.38;4177162;28;20204;-54
2024/01/28 04:41:55;;;;;;;1.83;1.73;;;;;;;-1.35;100.00;100121.88;4175515;28;20595;-52
2024/01/28 04:43:57;;;;;;;2.87;2.70;;;;;;;-1.41;100.00;100108.97;4176091;28;20224;-52
2024/01/28 04:46:44;;;;;;;2.60;2.40;;;;;;;-1.43;100.00;100116.28;4187294;28;20219;-53
2024/01/28 04:48:45;;;;;;;2.00;1.87;;;;;;;-1.44;100.00;100111.91;4190234;28;20257;-52
2024/01/28 04:50:47;;;;;;;5.00;3.07;;;;;;;-1.43;100.00;100116.28;4176152;28;20212;-55
2024/01/28 04:52:49;;;;;;;3.43;3.23;;;;;;;-1.47;100.00;100106.84;4191138;28;20219;-52
2024/01/28 04:54:51;;;;;;;3.20;2.67;;;;;;;-1.47;100.00;100112.19;4174602;28;20250;-53
2024/01/28 04:56:52;;;;;;;1.90;1.80;;;;;;;-1.45;100.00;100107.53;4173763;28;20265;-54
2024/01/28 04:58:54;;;;;;;2.20;2.10;;;;;;;-1.50;100.00;100109.78;4172754;28;20204;-52
2024/01/28 05:00:56;;;;;;;3.03;2.30;;;;;;;-1.41;100.00;100112.50;4173274;28;20219;-55
2024/01/28 05:02:58;;;;;;;2.50;2.30;;;;;;;-1.39;100.00;100101.63;4171847;28;20237;-53
2024/01/28 05:05:00;;;;;;;9.57;2.53;;;;;;;-1.40;100.00;100105.31;4173937;28;20274;-51
2024/01/28 05:07:02;;;;;;;4.50;4.20;;;;;;;-1.43;100.00;100102.88;4175296;28;20239;-52
2024/01/28 05:09:04;;;;;;;3.63;3.43;;;;;;;-1.55;100.00;100102.13;4175017;28;20224;-52
2024/01/28 05:11:06;;;;;;;3.77;3.40;;;;;;;-1.58;100.00;100097.06;4174741;28;20212;-52
2024/01/28 05:13:09;;;;;;;2.13;2.07;;;;;;;-1.61;100.00;100104.53;4190542;28;20238;-51
2024/01/28 05:15:14;;;;;;;2.30;2.20;;;;;;;-1.62;100.00;100106.34;4173942;28;20259;-55
2024/01/28 05:17:15;;;;;;;2.43;2.23;;;;;;;-1.65;100.00;100105.75;4174503;28;20212;-51
2024/01/28 05:19:17;;;;;;;2.10;1.90;;;;;;;-1.64;100.00;100107.47;4173397;28;20281;-52
2024/01/28 05:21:19;;;;;;;3.00;2.90;;;;;;;-1.65;100.00;100105.75;4174840;28;20231;-52
2024/01/28 05:23:21;;;;;;;2.23;2.03;;;;;;;-1.66;100.00;100117.47;4170185;28;20311;-54
2024/01/28 05:25:23;;;;;;;3.43;3.13;;;;;;;-1.66;100.00;100120.16;4170419;28;20213;-54
2024/01/28 05:27:24;;;;;;;1.97;1.87;;;;;;;-1.71;100.00;100117.03;4171720;28;20209;-51
2024/01/28 05:29:26;;;;;;;3.47;3.30;;;;;;;-1.71;100.00;100114.34;4173739;28;20231;-54
2024/01/28 05:31:28;;;;;;;2.10;2.00;;;;;;;-1.72;100.00;100109.97;4175462;28;20210;-53
2024/01/28 05:33:33;;;;;;;2.23;2.13;;;;;;;-1.65;100.00;100113.81;4188236;28;20227;-53
2024/01/28 05:35:36;;;;;;;3.30;3.03;;;;;;;-1.67;100.00;100103.22;4175363;28;20716;-52
2024/01/28 05:37:39;;;;;;;3.10;3.00;;;;;;;-1.70;100.00;100099.94;4191997;28;20241;-52
2024/01/28 05:39:41;;;;;;;3.87;3.63;;;;;;;-1.62;100.00;100100.16;4153006;28;20214;-52
2024/01/28 05:41:43;;;;;;;2.20;2.10;;;;;;;-1.53;100.00;100092.09;4173725;28;20847;-52
2024/01/28 05:43:47;;;;;;;2.73;2.53;;;;;;;-1.59;100.00;100090.00;4174990;28;20305;-51
2024/01/28 05:45:49;;;;;;;2.77;2.57;;;;;;;-1.66;100.00;100088.84;4177106;28;20211;-53
2024/01/28 05:47:51;;;;;;;3.97;3.47;;;;;;;-1.68;100.00;100095.31;4173073;28;20235;-55
2024/01/28 05:49:53;;;;;;;10.73;5.33;;;;;;;-1.75;100.00;100094.16;4175136;28;20212;-53
2024/01/28 05:51:55;;;;;;;4.53;4.00;;;;;;;-1.77;100.00;100093.41;4177339;28;20212;-52
2024/01/28 05:53:57;;;;;;;10.87;4.17;;;;;;;-1.76;100.00;100095.97;4177433;28;20244;-54
2024/01/28 05:55:59;;;;;;;4.07;3.70;;;;;;;-1.73;100.00;100086.81;4178407;28;20208;-52
2024/01/28 05:58:00;;;;;;;3.90;3.47;;;;;;;-1.68;100.00;100087.25;4177366;28;20200;-54
2024/01/28 06:00:03;;;;;;;4.50;3.30;;;;;;;-1.75;100.00;100078.88;4173428;28;20266;-53
2024/01/28 06:02:05;;;;;;;4.63;4.17;;;;;;;-1.77;100.00;100085.38;4188714;28;20620;-53
2024/01/28 06:04:09;;;;;;;5.53;4.67;;;;;;;-1.80;100.00;100085.66;4193899;28;20268;-51
2024/01/28 06:06:11;;;;;;;4.40;3.97;;;;;;;-1.85;100.00;100083.38;4178528;28;20979;-54
2024/01/28 06:08:13;;;;;;;4.83;3.73;;;;;;;-1.84;100.00;100084.22;4177374;28;20220;-52
2024/01/28 06:10:15;;;;;;;6.40;4.13;;;;;;;-1.84;100.00;100094.94;4175878;28;20208;-53
2024/01/28 06:12:18;;;;;;;4.70;4.30;;;;;;;-1.74;100.00;100090.47;4176684;28;20219;-53
2024/01/28 06:14:20;;;;;;;4.37;4.07;;;;;;;-1.64;100.00;100088.69;4173954;28;20292;-52
2024/01/28 06:16:22;;;;;;;3.40;3.10;;;;;;;-1.77;100.00;100080.00;4177504;28;20299;-52
2024/01/28 06:18:24;;;;;;;7.80;3.97;;;;;;;-1.81;100.00;100084.78;4174443;28;20208;-54
2024/01/28 06:20:26;;;;;;;6.47;4.27;;;;;;;-1.82;100.00;100087.63;4173378;28;20291;-55
2024/01/28 06:22:27;;;;;;;3.70;3.47;;;;;;;-1.83;100.00;100091.25;4161321;28;20595;-54
2024/01/28 06:24:30;;;;;;;3.57;3.33;;;;;;;-1.69;100.00;100093.63;4176689;28;20215;-53
2024/01/28 06:26:36;;;;;;;4.77;3.33;;;;;;;-2.04;100.00;100083.28;4177563;28;20219;-54
2024/01/28 06:28:37;;;;;;;5.00;3.00;;;;;;;-2.04;100.00;100093.13;4192913;28;20211;-52
2024/01/28 06:30:39;;;;;;;3.17;3.00;;;;;;;-2.15;100.00;100085.19;4175108;28;20254;-53
2024/01/28 06:32:42;;;;;;;3.53;3.33;;;;;;;-2.05;100.00;100088.75;4176886;28;21038;-53
2024/01/28 06:34:44;;;;;;;2.87;2.60;;;;;;;-2.01;100.00;100083.00;4179623;28;20200;-54
2024/01/28 06:36:48;;;;;;;4.10;3.90;;;;;;;-1.98;100.00;100081.88;4176727;28;20215;-53
2024/01/28 06:38:50;;;;;;;3.73;3.17;;;;;;;-1.97;100.00;100084.44;4175767;28;20196;-58
2024/01/28 06:40:52;;;;;;;2.33;2.23;;;;;;;-1.95;100.00;100092.34;4178441;28;20212;-53
2024/01/28 06:42:54;;;;;;;4.17;3.87;;;;;;;-1.96;100.00;100096.00;4176791;28;20326;-52
2024/01/28 06:44:55;;;;;;;3.47;2.93;;;;;;;-1.93;100.00;100085.84;4177896;28;20294;-53
2024/01/28 06:46:58;;;;;;;6.00;3.07;;;;;;;-1.96;100.00;100085.28;4172546;28;20200;-53
2024/01/28 06:49:01;;;;;;;2.97;2.67;;;;;;;-1.96;100.00;100085.28;4191085;28;20709;-52
2024/01/28 06:51:04;;;;;;;3.67;3.37;;;;;;;-2.01;100.00;100085.69;4178656;28;20212;-55
2024/01/28 06:53:06;;;;;;;3.03;2.83;;;;;;;-2.01;100.00;100084.84;4191361;28;20708;-52
2024/01/28 06:55:08;;;;;;;2.70;2.53;;;;;;;-1.94;100.00;100088.69;4175880;28;20204;-52
2024/01/28 06:57:10;;;;;;;3.67;3.47;;;;;;;-1.95;100.00;100087.81;4171433;28;20220;-53
2024/01/28 06:59:12;;;;;;;3.10;2.97;;;;;;;-1.92;100.00;100092.06;4177162;28;20928;-54
2024/01/28 07:01:14;;;;;;;2.90;2.60;;;;;;;-1.98;100.00;100103.34;4180810;28;20213;-55
2024/01/28 07:03:18;;;;;;;2.57;2.30;;;;;;;-1.98;100.00;100103.34;4159906;28;20228;-52
2024/01/28 07:05:20;;;;;;;3.13;3.03;;;;;;;-1.88;100.00;100088.16;4177304;28;20208;-52
2024/01/28 07:07:23;;;;;;;3.47;3.27;;;;;;;-1.99;100.00;100090.91;4177065;28;20232;-54
2024/01/28 07:09:25;;;;;;;2.63;2.43;;;;;;;-2.03;100.00;100090.34;4177511;28;20228;-52
2024/01/28 07:11:27;;;;;;;3.23;3.03;;;;;;;-1.94;100.00;100088.69;4174617;28;20725;-52
2024/01/28 07:13:29;;;;;;;2.67;2.47;;;;;;;-1.89;100.00;100094.50;4194483;28;20219;-54
2024/01/28 07:15:31;;;;;;;7.27;3.77;;;;;;;-1.87;100.00;100100.59;4176479;28;20215;-52
2024/01/28 07:17:32;;;;;;;3.30;3.10;;;;;;;-1.91;100.00;100099.13;4176380;28;20212;-53
2024/01/28 07:19:35;;;;;;;4.50;4.20;;;;;;;-1.91;100.00;100099.13;4178473;28;20204;-54
2024/01/28 07:21:37;;;;;;;4.83;4.53;;;;;;;-1.85;100.00;100098.59;4188766;28;20207;-54
2024/01/28 07:23:40;;;;;;;2.83;2.63;;;;;;;-1.93;100.00;100090.38;4191791;28;20227;-51
2024/01/28 07:25:42;;;;;;;3.83;3.63;;;;;;;-1.97;100.00;100094.31;4192436;28;20571;-53
2024/01/28 07:27:43;;;;;;;3.30;3.20;;;;;;;-1.99;100.00;100098.97;4172186;28;20274;-53
2024/01/28 07:29:45;;;;;;;7.53;3.60;;;;;;;-1.97;100.00;100094.31;4189120;28;20314;-52
2024/01/28 07:31:47;;;;;;;2.93;2.80;;;;;;;-1.97;100.00;100094.31;4176109;28;20207;-54
2024/01/28 07:33:49;;;;;;;3.83;3.53;;;;;;;-1.94;100.00;100092.19;4170435;28;20228;-52
2024/01/28 07:35:51;;;;;;;3.47;3.23;;;;;;;-1.88;100.00;100098.88;4182066;28;20208;-54
2024/01/28 07:37:53;;;;;;;3.10;2.80;;;;;;;-1.91;100.00;100099.13;4176157;28;20616;-53
2024/01/28 07:39:54;;;;;;;3.40;3.20;;;;;;;-1.91;100.00;100099.13;4189671;28;20234;-55
2024/01/28 07:41:58;;;;;;;3.60;3.23;;;;;;;-1.92;100.00;100101.00;4186678;28;20213;-52
2024/01/28 07:44:01;;;;;;;4.07;3.87;;;;;;;-1.88;100.00;100098.88;4175785;28;20231;-53
2024/01/28 07:46:03;;;;;;;9.27;5.47;;;;;;;-1.87;100.00;100100.59;4188788;28;20211;-52
2024/01/28 07:48:05;;;;;;;3.00;2.80;;;;;;;-1.84;100.00;100100.31;4175440;28;20687;-52
2024/01/28 07:50:07;;;;;;;3.10;2.80;;;;;;;-1.78;100.00;100095.28;4176235;28;20585;-54
2024/01/28 07:52:09;;;;;;;2.57;2.43;;;;;;;-1.80;100.00;100097.22;4175618;28;20571;-52
2024/01/28 07:54:11;;;;;;;3.87;3.53;;;;;;;-1.81;100.00;100094.69;4175958;28;21115;-53
2024/01/28 07:56:13;;;;;;;3.17;2.87;;;;;;;-1.79;100.00;100098.06;4172944;28;20569;-52
2024/01/28 07:58:15;;;;;;;2.93;2.83;;;;;;;-1.78;100.00;100094.41;4174523;28;20235;-53
2024/01/28 08:00:17;;;;;;;4.47;4.17;;;;;;;-1.79;100.00;100095.41;4175178;28;20609;-52
2024/01/28 08:02:19;;;;;;;3.40;2.83;;;;;;;-1.78;100.00;100094.41;4174607;28;20203;-53
2024/01/28 08:04:21;;;;;;;4.03;3.60;;;;;;;-1.70;100.00;100098.13;4185027;28;20210;-54
2024/01/28 08:06:23;;;;;;;2.43;2.23;;;;;;;-1.68;100.00;100095.31;4175768;28;20220;-53
2024/01/28 08:08:25;;;;;;;3.17;2.90;;;;;;;-1.67;100.00;100099.69;4175588;28;20307;-54
2024/01/28 08:10:26;;;;;;;3.57;3.23;;;;;;;-1.48;100.00;100097.09;4176099;28;20209;-52
2024/01/28 08:12:28;;;;;;;3.53;3.07;;;;;;;-1.54;100.00;100097.63;4175171;28;20297;-51
2024/01/28 08:14:30;;;;;;;3.27;2.97;;;;;;;-1.31;100.00;100096.44;4191698;28;20235;-51
2024/01/28 08:16:32;;;;;;;4.23;3.83;;;;;;;-0.94;100.00;100097.50;4189634;28;20203;-52
2024/01/28 08:18:33;;;;;;;4.50;4.20;;;;;;;-0.48;100.00;100098.53;4174338;28;20201;-51
2024/01/28 08:20:37;;;;;;;2.97;2.77;;;;;;;-0.23;100.00;100099.78;4170420;28;20236;-53
2024/01/28 08:22:41;;;;;;;4.93;2.50;;;;;;;-0.04;100.00;100100.59;4174645;28;20319;-55
2024/01/28 08:24:42;;;;;;;2.20;2.05;;;;;;;0.66;100.00;100107.19;4191733;28;20604;-54
2024/01/28 08:26:44;;;;;;;7.03;4.25;;;;;;;1.13;100.00;100100.66;4186567;28;20212;-52
2024/01/28 08:28:46;;;;;;;9.07;2.85;;;;;;;1.81;100.00;100097.28;4187701;28;20250;-52
2024/01/28 08:30:48;;;;;;;2.75;2.60;;;;;;;1.78;100.00;100097.59;4169138;28;20247;-52
2024/01/28 08:32:50;;;;;;;6.88;3.13;;;;;;;1.80;100.00;100095.59;4189604;28;20259;-52
2024/01/28 08:34:52;;;;;;;7.95;4.35;;;;;;;1.77;100.00;100100.44;4190661;28;20581;-51
2024/01/28 08:36:54;;;;;;;3.20;3.00;;;;;;;2.21;100.00;100086.78;4171751;28;20204;-51
2024/01/28 08:38:56;;;;;;;7.38;3.10;;;;;;;2.73;100.00;100093.84;4170036;28;20230;-51
2024/01/28 08:40:57;;;;;;;2.58;2.35;;;;;;;2.86;100.00;100085.28;4191204;28;20211;-52
2024/01/28 08:43:00;;;;;;;3.13;2.92;;;;;;;3.10;100.00;100088.94;4174762;28;20231;-51
2024/01/28 08:45:02;;;;;;;5.35;3.63;;;;;;;2.82;100.00;100095.56;4174516;28;20303;-52
2024/01/28 08:47:04;;;;;;;6.18;2.97;;;;;;;3.13;100.00;100093.16;4172190;28;20494;-52
2024/01/28 08:49:06;;;;;;;8.00;3.08;;;;;;;3.17;100.00;100095.38;4187691;28;20228;-52
2024/01/28 08:51:09;;;;;;;2.55;2.35;;;;;;;3.65;100.00;100100.00;4173166;28;20211;-52
2024/01/28 08:53:11;;;;;;;5.07;3.40;;;;;;;4.33;100.00;100098.66;4175645;28;20651;-51
2024/01/28 08:55:13;;;;;;;2.83;2.63;;;;;;;4.27;100.00;100100.19;4175718;28;20212;-52
2024/01/28 08:57:15;;;;;;;5.43;2.65;;;;;;;4.66;96.90;100106.53;4170504;28;20219;-52
2024/01/28 08:59:16;;;;;;;3.50;3.20;;;;;;;4.45;100.00;100103.53;4175656;28;20203;-51
2024/01/28 09:01:18;;;;;;;3.17;2.60;;;;;;;5.01;98.89;100102.53;4174812;28;20212;-52
2024/01/28 09:03:20;;;;;;;4.82;3.15;;;;;;;5.38;92.75;100108.94;4187679;28;20260;-51
2024/01/28 09:05:23;;;;;;;2.38;2.17;;;;;;;5.55;90.67;100103.25;4188011;28;20247;-51
2024/01/28 09:07:25;;;;;;;3.35;3.15;;;;;;;5.37;95.82;100115.41;4174126;28;20324;-51
2024/01/28 09:09:28;;;;;;;8.18;2.97;;;;;;;5.27;92.30;100115.63;4188579;28;20254;-52
2024/01/28 09:11:31;;;;;;;3.38;3.13;;;;;;;5.52;91.32;100111.75;4172531;28;20981;-51
2024/01/28 09:13:32;;;;;;;3.63;3.33;;;;;;;6.30;86.95;100106.94;4176269;28;20287;-51
2024/01/28 09:15:34;;;;;;;7.90;2.80;;;;;;;6.55;81.74;100102.97;4175805;28;20254;-51
2024/01/28 09:17:36;;;;;;;4.53;3.70;;;;;;;6.73;86.36;100097.97;4187078;28;20208;-51
2024/01/28 09:19:38;;;;;;;4.05;3.65;;;;;;;7.35;81.00;100102.00;4175600;28;20291;-51
2024/01/28 09:21:40;;;;;;;4.95;2.75;;;;;;;7.03;80.25;100107.84;4168897;28;20704;-52
2024/01/28 09:23:42;;;;;;;3.33;3.10;;;;;;;7.48;74.29;100102.97;4185850;28;20658;-52